Estación de Nueva Imperial
Ultimos registro cada 15 minutos 23
| N° | Estación | Fecha / Hora | Temperatura | Humedad | Lluvia | Velocidad | Dirección | Radiación | Presion |
| 23 | Nueva Imperial | 10-05-2026 05:30 | 1 | 95,7 | 0 | 0 | 277 | 0,6 | 1013,5 |
| 22 | Nueva Imperial | 10-05-2026 05:15 | 1,3 | 95,9 | 0 | 0 | 277 | 0,6 | 1013,5 |
| 21 | Nueva Imperial | 10-05-2026 05:00 | 2 | 95,4 | 0 | 0 | 277 | 0,6 | 1013,6 |
| 20 | Nueva Imperial | 10-05-2026 04:45 | 2,2 | 95,7 | 0 | 0 | 277 | 0,6 | 1013,6 |
| 19 | Nueva Imperial | 10-05-2026 04:30 | 2,3 | 95,1 | 0 | 0 | 277 | 0,6 | 1013,6 |
| 18 | Nueva Imperial | 10-05-2026 04:15 | 2,3 | 95,3 | 0 | 0 | 277 | 0,6 | 1013,5 |
| 17 | Nueva Imperial | 10-05-2026 04:00 | 1,8 | 94,6 | 0 | 0 | 277 | 0,6 | 1013,6 |
| 16 | Nueva Imperial | 10-05-2026 03:45 | 2,3 | 93,9 | 0 | 0 | 277 | 0,6 | 1013,6 |
| 15 | Nueva Imperial | 10-05-2026 03:30 | 2,8 | 93,5 | 0 | 0 | 277 | 0,6 | 1013,6 |
| 14 | Nueva Imperial | 10-05-2026 03:15 | 2,9 | 93,7 | 0 | 0,3 | 277 | 0,6 | 1013,7 |
| 13 | Nueva Imperial | 10-05-2026 03:00 | 3 | 92,8 | 0 | 0,3 | 275 | 0,6 | 1013,7 |
| 12 | Nueva Imperial | 10-05-2026 02:45 | 3,1 | 93,6 | 0 | 0 | 268 | 0,6 | 1013,7 |
| 11 | Nueva Imperial | 10-05-2026 02:30 | 2,7 | 92,8 | 0 | 0 | 268 | 0,6 | 1013,9 |
| 10 | Nueva Imperial | 10-05-2026 02:15 | 3,6 | 92,8 | 0 | 0,3 | 268 | 0,6 | 1014 |
| 9 | Nueva Imperial | 10-05-2026 02:00 | 3,3 | 93,1 | 0 | 0 | 258 | 0,6 | 1014,3 |
| 8 | Nueva Imperial | 10-05-2026 01:45 | 3,3 | 92,8 | 0 | 0 | 254 | 0,6 | 1014,4 |
| 7 | Nueva Imperial | 10-05-2026 01:30 | 3,6 | 91,7 | 0 | 0 | 319 | 0,6 | 1014,4 |
| 6 | Nueva Imperial | 10-05-2026 01:15 | 4,4 | 90,7 | 0 | 0 | 49 | 0,6 | 1014,5 |
| 5 | Nueva Imperial | 10-05-2026 01:00 | 4,4 | 90,6 | 0,2 | 0 | 59 | 0,6 | 1014,7 |
| 4 | Nueva Imperial | 10-05-2026 00:45 | 4,6 | 88,8 | 0 | 0 | 59 | 0,6 | 1014,8 |
| 3 | Nueva Imperial | 10-05-2026 00:30 | 4,9 | 89,1 | 0 | 0 | 59 | 0,6 | 1014,9 |
| 2 | Nueva Imperial | 10-05-2026 00:15 | 5,4 | 87,7 | 0 | 0 | 59 | 0,6 | 1015 |
| 1 | Nueva Imperial | 10-05-2026 00:00 | 5,9 | 87,2 | 0 | 0 | 59 | 0,6 | 1014,9 |